Latest Coastal Weather Observations for Yeppoon

IDQ60701

Issued at 4:42 am EST Sunday 28 August 2016 (issued every 10 minutes, with the page automatically refreshed every 10 minutes)

About coastal observations | Map of coastal stations | Coastal observations for QLD | Marine services | Other Formats
Station Details ID: 033294 Name: YEPPOON THE ESPLANADE Lat: -23.14 Lon: 150.75 Height: 5.5 m
Data from the previous 72 hours. | See also: Recent months at Yeppoon
Date/Time
EST
Temp
°C
Wind Pressure Rain since
9am
mm
Weather Cloud Vis
km
Sea
Height
m
Swell
Dir  Spd
kts
Gust
kts
hPa Trend Height
m
Period
s
Dir
28/04:30am 9.0 W 8 9 1022.3 - 0.0 - - - - - - -
28/04:00am 9.4 W 8 10 1022.1 - 0.0 - - - - - - -
28/03:30am 9.8 WSW 8 9 1021.6 - 0.0 - - - - - - -
28/03:00am 9.5 W 7 9 1021.6 - 0.0 - - - - - - -
28/02:30am 9.9 WSW 6 7 1021.7 - 0.0 - - - - - - -
28/02:00am 9.7 W 9 11 1022.2 - 0.0 - - - - - - -
28/01:30am 9.0 W 7 9 1022.2 - 0.0 - - - - - - -
28/01:00am 9.5 WSW 7 9 1022.2 - 0.0 - - - - - - -
28/12:30am 9.7 W 6 8 1022.3 - 0.0 - - - - - - -
28/12:00am 9.6 W 7 9 1022.5 - 0.0 - - - - - - -
 
Date/Time
EST
Temp
°C
Wind Pressure Rain since
9am
mm
Weather Cloud Vis
km
Sea
Height
m
Swell
Dir  Spd
kts
Gust
kts
hPa Trend Height
m
Period
s
Dir
27/11:30pm 9.1 W 7 8 1022.3 - 0.0 - - - - - - -
27/11:00pm 10.1 SW 3 5 1022.3 - 0.0 - - - - - - -
27/10:30pm 10.8 SSW 3 5 1022.4 - 0.0 - - - - - - -
27/10:00pm 10.9 SSW 4 5 1022.2 - 0.0 - - - - - - -
27/09:30pm 11.1 CALM 0 0 1022.0 - 0.0 - - - - - - -
27/09:00pm 11.5 SW 3 5 1022.0 - 0.0 - - - - - - -
27/08:30pm 12.3 SW 4 5 1021.8 - 0.0 - - - - - - -
27/08:00pm 13.0 WSW 7 8 1021.6 - 0.0 - - - - - - -
27/07:30pm 13.5 WSW 7 8 1021.5 - 0.0 - - - - - - -
27/07:00pm 13.4 W 7 8 1021.2 - 0.0 - - - - - - -
27/06:30pm 14.7 W 5 6 1020.7 - 0.0 - - - - - - -
27/06:00pm 16.7 SW 4 5 1020.1 - 0.0 - - - - - - -
27/05:30pm 18.4 SSW 6 7 1019.8 - 0.0 - - - - - - -
27/05:00pm 19.9 SSW 6 8 1019.5 - 0.0 - - - - - - -
27/04:30pm 20.4 SSW 7 10 1019.2 - 0.0 - - - - - - -
27/04:00pm 20.6 S 7 11 1019.0 - 0.0 - - - - - - -
27/03:30pm 20.5 SSE 8 12 1018.8 - 0.0 - - - - - - -
27/03:00pm 20.4 SSE 9 13 1018.9 - 0.0 - - - - - - -
27/02:30pm 20.6 SSW 8 13 1019.1 - 0.0 - - - - - - -
27/02:00pm 20.1 S 9 13 1019.3 - 0.0 - - - - - - -
27/01:30pm 20.1 S 8 13 1019.9 - 0.0 - - - - - - -
27/01:00pm 19.2 SSW 9 15 1020.4 - 0.0 - - - - - - -
27/12:30pm 18.9 SSW 9 15 1020.7 - 0.0 - - - - - - -
27/12:00pm 18.3 SSW 8 14 1021.1 - 0.0 - - - - - - -
27/11:30am 17.4 SSW 13 18 1021.5 - 0.0 - - - - - - -
27/11:00am 16.9 S 13 20 1022.0 - 0.0 - - - - - - -
27/10:30am 16.2 S 11 17 1022.4 - 0.0 - - - - - - -
27/10:00am 16.0 S 11 17 1022.9 - 0.0 - - - - - - -
27/09:30am 15.3 S 11 17 1022.7 - 0.0 - - - - - - -
27/09:00am 15.3 S 9 14 1022.9 - 0.0 - - - - - - -
27/08:30am 14.4 S 9 17 1023.1 - 0.0 - - - - - - -
27/08:00am 13.5 SW 6 12 1023.0 - 0.0 - - - - - - -
27/07:30am 11.6 SW 6 9 1022.5 - 0.0 - - - - - - -
27/07:00am 9.2 WSW 6 7 1022.3 - 0.0 - - - - - - -
27/06:30am 8.5 WSW 6 8 1022.0 - 0.0 - - - - - - -
27/06:00am 8.7 W 6 7 1021.6 - 0.0 - - - - - - -
27/05:30am 9.0 WSW 5 6 1021.3 - 0.0 - - - - - - -
27/05:00am 10.8 SW 6 9 1021.2 - 0.0 - - - - - - -
27/04:30am 11.2 SW 7 9 1020.2 - 0.0 - - - - - - -
27/04:00am 11.0 SSW 7 9 1020.1 - 0.0 - - - - - - -
27/03:30am 11.2 SSW 7 9 1020.0 - 0.0 - - - - - - -
27/03:00am 10.9 SSW 7 8 1020.1 - 0.0 - - - - - - -
27/02:30am 10.9 SSW 7 9 1020.1 - 0.0 - - - - - - -
27/02:00am 11.4 SSW 7 9 1020.1 - 0.0 - - - - - - -
27/01:30am 12.2 S 9 11 1020.2 - 0.0 - - - - - - -
27/01:00am 10.8 WSW 5 7 1020.2 - 0.0 - - - - - - -
27/12:30am 10.8 W 5 7 1020.4 - 0.0 - - - - - - -
27/12:00am 10.3 W 7 8 1020.4 - 0.0 - - - - - - -
 
Date/Time
EST
Temp
°C
Wind Pressure Rain since
9am
mm
Weather Cloud Vis
km
Sea
Height
m
Swell
Dir  Spd
kts
Gust
kts
hPa Trend Height
m
Period
s
Dir
26/11:30pm 10.2 W 6 7 1020.4 - 0.0 - - - - - - -
26/11:00pm 9.7 W 6 8 1020.2 - 0.0 - - - - - - -
26/10:30pm 9.8 W 7 8 1020.3 - 0.0 - - - - - - -
26/10:00pm 10.0 WSW 5 7 1020.0 - 0.0 - - - - - - -
26/09:30pm 10.0 WSW 4 5 1019.6 - 0.0 - - - - - - -
26/09:00pm 10.4 WSW 3 5 1019.6 - 0.0 - - - - - - -
26/08:30pm 10.8 WSW 4 5 1019.3 - 0.0 - - - - - - -
26/08:00pm 11.3 WSW 2 5 1019.0 - 0.0 - - - - - - -
26/07:30pm 11.8 WSW 3 4 1018.7 - 0.0 - - - - - - -
26/07:00pm 12.6 WSW 4 5 1018.5 - 0.0 - - - - - - -
26/06:30pm 13.8 W 4 5 1018.1 - 0.0 - - - - - - -
26/06:00pm 15.4 SW 4 5 1017.8 - 0.0 - - - - - - -
26/05:30pm 16.5 SW 4 5 1017.5 - 0.0 - - - - - - -
26/05:00pm 17.6 SW 7 10 1017.2 - 0.0 - - - - - - -
26/04:30pm 17.8 SW 7 12 1017.0 - 0.0 - - - - - - -
26/04:00pm 17.8 SW 9 12 1016.6 - 0.0 - - - - - - -
26/03:30pm 18.0 SW 9 11 1016.3 - 0.0 - - - - - - -
26/03:00pm 18.4 SE 4 6 1016.0 - 0.0 - - - - - - -
26/02:30pm 18.7 SE 6 9 1015.7 - 0.0 - - - - - - -
26/02:00pm 18.6 S 5 7 1016.0 - 0.0 - - - - - - -
26/01:30pm 18.9 S 5 9 1016.0 - 0.0 - - - - - - -
26/01:00pm 18.7 S 7 10 1016.3 - 0.0 - - - - - - -
26/12:30pm 18.8 SSE 7 11 1016.1 - 0.0 - - - - - - -
26/12:00pm 18.3 SSE 7 9 1016.6 - 0.0 - - - - - - -
26/11:30am 17.5 SE 5 9 1017.3 - 0.0 - - - - - - -
26/11:00am 17.2 SE 7 10 1017.6 - 0.0 - - - - - - -
26/10:30am 17.3 SE 7 10 1017.7 - 0.0 - - - - - - -
26/10:00am 17.7 SE 9 13 1018.2 - 0.0 - - - - - - -
26/09:30am 17.1 SSE 8 13 1017.9 - 0.0 - - - - - - -
26/09:00am 16.1 SSE 7 11 1018.0 - 0.0 - - - - - - -
26/08:30am 15.9 SSE 6 10 1017.7 - 0.0 - - - - - - -
26/08:00am 14.9 S 7 9 1017.7 - 0.0 - - - - - - -
26/07:30am 14.4 S 6 8 1017.8 - 0.0 - - - - - - -
26/07:00am 14.4 S 4 7 1017.2 - 0.0 - - - - - - -
26/06:30am 14.0 S 4 6 1017.3 - 0.0 - - - - - - -
26/06:00am 14.1 S 6 8 1016.5 - 0.0 - - - - - - -
26/05:30am 14.3 S 6 8 1016.3 - 0.0 - - - - - - -
26/05:00am 14.6 S 8 12 1015.8 - 0.0 - - - - - - -
26/04:30am 14.3 S 6 8 1015.7 - 0.0 - - - - - - -
26/04:00am 14.1 SSW 4 6 1015.3 - 0.0 - - - - - - -
26/03:30am 14.8 S 9 12 1014.9 - 0.0 - - - - - - -
26/03:00am 13.7 SSW 5 7 1014.8 - 0.0 - - - - - - -
26/02:30am 14.1 SW 5 6 1015.0 - 0.0 - - - - - - -
26/02:00am 14.7 WSW 2 5 1015.2 - 0.0 - - - - - - -
26/01:30am 15.0 W 5 6 1015.2 - 0.0 - - - - - - -
26/01:00am 15.4 WSW 5 6 1015.4 - 0.0 - - - - - - -
26/12:30am 15.6 W 3 4 1015.6 - 0.0 - - - - - - -
26/12:00am 15.6 W 5 6 1015.7 - 0.0 - - - - - - -
 
Date/Time
EST
Temp
°C
Wind Pressure Rain since
9am
mm
Weather Cloud Vis
km
Sea
Height
m
Swell
Dir  Spd
kts
Gust
kts
hPa Trend Height
m
Period
s
Dir
25/11:30pm 16.0 WSW 4 6 1015.7 - 0.0 - - - - - - -
25/11:00pm 15.7 W 5 6 1015.9 - 0.0 - - - - - - -
25/10:30pm 15.9 W 4 5 1015.8 - 0.0 - - - - - - -
25/10:00pm 16.0 W 4 5 1015.7 - 0.0 - - - - - - -
25/09:30pm 16.4 W 1 3 1015.5 - 0.0 - - - - - - -
25/09:00pm 16.6 CALM 0 0 1015.3 - 0.0 - - - - - - -
25/08:30pm 17.1 W 3 4 1015.0 - 0.0 - - - - - - -
25/08:00pm 17.6 N 7 8 1015.1 - 0.0 - - - - - - -
25/07:30pm 17.5 CALM 0 3 1014.7 - 0.0 - - - - - - -
25/07:00pm 17.9 N 5 6 1014.6 - 0.0 - - - - - - -
25/06:30pm 18.0 CALM 0 4 1014.0 - 0.0 - - - - - - -
25/06:00pm 18.1 N 4 7 1013.7 - 0.0 - - - - - - -
25/05:30pm 18.3 NNW 7 9 1013.2 - 0.0 - - - - - - -
25/05:00pm 18.6 N 11 12 1013.2 - 0.0 - - - - - - -
25/04:30pm 19.1 N 8 11 1013.0 - 0.0 - - - - - - -
25/04:00pm 19.5 N 6 7 1012.6 - 0.0 - - - - - - -
25/03:30pm 19.6 NNE 4 5 1012.1 - 0.0 - - - - - - -
25/03:00pm 19.6 NNE 1 4 1011.8 - 0.0 - - - - - - -
25/02:30pm 19.2 SW 3 5 1012.1 - 0.0 - - - - - - -
25/02:00pm 18.9 WSW 4 5 1012.7 - 0.0 - - - - - - -
25/01:30pm 19.0 S 6 8 1012.3 - 0.0 - - - - - - -
25/01:00pm 18.7 SSW 5 7 1012.7 - 0.0 - - - - - - -
25/12:30pm 18.4 SSE 6 7 1013.2 - 0.0 - - - - - - -
25/12:00pm 18.0 S 5 7 1013.4 - 0.0 - - - - - - -
25/11:30am 17.9 S 5 7 1013.7 - 0.0 - - - - - - -
25/11:00am 17.8 S 8 13 1014.0 - 0.0 - - - - - - -
25/10:30am 17.4 SSE 8 11 1014.1 - 0.0 - - - - - - -
25/10:00am 17.4 S 7 12 1014.5 - 0.0 - - - - - - -
25/09:30am 18.3 SW 5 8 1014.6 - 0.0 - - - - - - -
25/09:00am 18.3 SW 4 6 1014.3 - 5.2 - - - - - - -
25/08:30am 18.0 W 4 5 1014.0 - 5.2 - - - - - - -
25/08:00am 17.6 WSW 3 5 1013.4 - 5.2 - - - - - - -
25/07:30am 17.4 SW 3 5 1012.9 - 5.2 - - - - - - -
25/07:00am 17.2 SW 3 5 1012.9 - 5.2 - - - - - - -
25/06:30am 17.1 SW 2 4 1013.3 - 5.2 - - - - - - -
25/06:00am 17.1 SW 4 6 1012.4 - 5.2 - - - - - - -
25/05:30am 17.2 NW 4 7 1011.9 - 5.2 - - - - - - -
25/05:00am 17.1 WNW 5 7 1011.4 - 5.2 - - - - - - -

Other Formats:

Comma delimited format used in spreadsheet applications
http://www.bom.gov.au/fwo/IDQ60701/IDQ60701.94373.axf

JavaScript Object Notation format (JSON) in row-major order
http://www.bom.gov.au/fwo/IDQ60701/IDQ60701.94373.json